createdAt,value
2023-04-27T00:01:33.724Z,99851.37
2023-04-27T00:06:37.112Z,99854.73
2023-04-27T00:11:40.358Z,99858.89
2023-04-27T00:16:43.862Z,99859.89
2023-04-27T00:21:47.248Z,99860.25
2023-04-27T00:26:50.775Z,99863.05
2023-04-27T00:31:54.076Z,99868.57
2023-04-27T00:36:57.998Z,99867.28
2023-04-27T00:42:01.844Z,99869.92
2023-04-27T00:47:06.485Z,99871.85
2023-04-27T00:52:09.673Z,99874.98
2023-04-27T00:57:13.186Z,99877.44
2023-04-27T01:02:17.164Z,99878.71
2023-04-27T01:07:26.054Z,99880.16
2023-04-27T01:12:29.373Z,99875.91
2023-04-27T01:17:33.021Z,99881.84
2023-04-27T01:22:37.503Z,99883.15
2023-04-27T01:27:41.040Z,99883.89
2023-04-27T01:32:44.490Z,99885.61
2023-04-27T01:37:48.190Z,99883.98
2023-04-27T01:42:51.685Z,99886.85
2023-04-27T01:47:55.003Z,99890.99
2023-04-27T01:52:58.514Z,99891.39
2023-04-27T01:58:02.035Z,99893.80
2023-04-27T02:03:05.652Z,99896.02
2023-04-27T02:08:09.472Z,99896.65
2023-04-27T02:13:12.781Z,99901.24
2023-04-27T02:18:16.298Z,99896.66
2023-04-27T02:23:19.706Z,99899.08
2023-04-27T02:28:23.225Z,99899.94
2023-04-27T02:33:27.050Z,99898.27
2023-04-27T02:38:30.875Z,99898.73
2023-04-27T02:43:34.218Z,99895.95
2023-04-27T02:48:37.701Z,99898.05
2023-04-27T02:53:41.412Z,99903.04
2023-04-27T02:58:45.236Z,99907.41
2023-04-27T03:03:48.895Z,99910.42
2023-04-27T03:08:52.575Z,99911.37
2023-04-27T03:13:56.495Z,99916.90
2023-04-27T03:19:00.321Z,99918.25
2023-04-27T03:24:04.133Z,99919.67
2023-04-27T03:29:07.574Z,99923.68
2023-04-27T03:34:11.181Z,99926.34
2023-04-27T03:39:15.015Z,99925.98
2023-04-27T03:44:18.820Z,99930.83
2023-04-27T03:49:22.438Z,99931.10
2023-04-27T03:54:26.064Z,99936.80
2023-04-27T03:59:30.526Z,99940.85
2023-04-27T04:04:34.065Z,99945.63
2023-04-27T04:09:37.836Z,99946.88
2023-04-27T04:14:41.249Z,99947.09
2023-04-27T04:19:44.765Z,99955.04
2023-04-27T04:24:48.384Z,99957.98
2023-04-27T04:29:51.794Z,99962.04
2023-04-27T04:34:55.137Z,99964.10
2023-04-27T04:39:58.724Z,99967.40
2023-04-27T04:45:02.540Z,99965.44
2023-04-27T04:50:07.179Z,99965.16
2023-04-27T04:55:11.423Z,99969.59
2023-04-27T05:00:14.829Z,99975.73
2023-04-27T05:05:18.241Z,99972.52
2023-04-27T05:10:21.753Z,99975.16
2023-04-27T05:15:25.382Z,99984.77
2023-04-27T05:20:28.806Z,99991.08
2023-04-27T05:25:41.969Z,99997.94
2023-04-27T05:30:45.650Z,99992.84
2023-04-27T05:35:49.162Z,100004.41
2023-04-27T05:40:57.197Z,100007.33
2023-04-27T05:46:00.623Z,100010.35
2023-04-27T05:51:04.866Z,100013.11
2023-04-27T05:56:09.043Z,100015.74
2023-04-27T06:01:12.995Z,100020.34
2023-04-27T06:06:16.612Z,100024.41
2023-04-27T06:11:19.929Z,100024.05
2023-04-27T06:16:24.024Z,100024.44
2023-04-27T06:21:28.453Z,100028.01
2023-04-27T06:26:31.698Z,100030.11
2023-04-27T06:31:35.306Z,100030.30
2023-04-27T06:36:38.779Z,100034.89
2023-04-27T06:41:42.241Z,100032.61
2023-04-27T06:46:45.653Z,100029.47
2023-04-27T06:51:49.744Z,100026.30
2023-04-27T06:56:55.048Z,100027.98
2023-04-27T07:01:58.507Z,100033.32
2023-04-27T07:07:02.069Z,100032.80
2023-04-27T07:12:05.481Z,100042.98
2023-04-27T07:17:09.002Z,100034.31
2023-04-27T07:22:12.516Z,100038.20
2023-04-27T07:27:16.030Z,100043.91
2023-04-27T07:32:19.467Z,100037.42
2023-04-27T07:37:24.440Z,100036.73
2023-04-27T07:42:27.808Z,100045.56
2023-04-27T07:47:31.215Z,100043.30
2023-04-27T07:52:34.632Z,100051.19
2023-04-27T07:57:38.142Z,100052.52
2023-04-27T08:02:41.720Z,100058.67
2023-04-27T08:07:45.824Z,100056.39
2023-04-27T08:12:49.305Z,100061.14
2023-04-27T08:17:52.864Z,100052.42
2023-04-27T08:22:56.872Z,100053.76
2023-04-27T08:28:00.261Z,100064.43
2023-04-27T08:33:03.726Z,100059.38
2023-04-27T08:38:08.212Z,100062.98
2023-04-27T08:43:12.249Z,100065.79
2023-04-27T08:48:16.080Z,100065.98
2023-04-27T08:53:23.080Z,100068.30
2023-04-27T08:58:39.694Z,100067.48
2023-04-27T09:03:43.772Z,100068.27
2023-04-27T09:08:48.387Z,100066.52
2023-04-27T09:13:51.870Z,100071.80
2023-04-27T09:18:56.904Z,100073.87
2023-04-27T09:24:13.953Z,100077.95
2023-04-27T09:29:17.686Z,100072.85
2023-04-27T09:34:21.356Z,100078.73
2023-04-27T09:39:25.215Z,100064.16
2023-04-27T09:44:30.319Z,100065.84
2023-04-27T09:49:35.050Z,100072.95
2023-04-27T09:54:42.832Z,100081.88
2023-04-27T10:00:11.190Z,100075.76
2023-04-27T10:05:33.189Z,100072.46
2023-04-27T10:10:47.441Z,100082.45
2023-04-27T10:15:52.596Z,100083.94
2023-04-27T10:20:56.212Z,100089.16
2023-04-27T10:26:07.747Z,100085.67
2023-04-27T10:31:14.037Z,100092.08
2023-04-27T10:36:17.526Z,100091.51
2023-04-27T10:41:21.039Z,100079.44
2023-04-27T10:46:24.429Z,100083.42
2023-04-27T10:51:28.858Z,100084.88
2023-04-27T10:56:33.731Z,100090.81
2023-04-27T11:01:37.868Z,100103.33
2023-04-27T11:06:47.042Z,100116.77
2023-04-27T11:11:51.034Z,100110.24
2023-04-27T11:16:54.379Z,100100.02
2023-04-27T11:22:07.288Z,100096.30
2023-04-27T11:27:10.690Z,100091.94
2023-04-27T11:32:24.106Z,100092.91
2023-04-27T11:37:28.082Z,100090.38
2023-04-27T11:42:34.449Z,100095.58
2023-04-27T11:47:38.323Z,100091.52
2023-04-27T11:52:41.796Z,100093.81
2023-04-27T11:57:45.300Z,100101.33
2023-04-27T12:02:48.864Z,100104.03
2023-04-27T12:07:52.859Z,100101.21
2023-04-27T12:12:56.316Z,100101.92
2023-04-27T12:18:00.547Z,100097.96
2023-04-27T12:23:04.329Z,100098.00
2023-04-27T12:28:08.360Z,100090.34
2023-04-27T12:33:12.459Z,100085.38
2023-04-27T12:38:16.203Z,100094.73
2023-04-27T12:43:19.718Z,100097.64
2023-04-27T12:48:23.874Z,100100.68
2023-04-27T12:53:29.045Z,100102.20
2023-04-27T12:58:32.607Z,100098.48
2023-04-27T13:03:36.014Z,100098.72
2023-04-27T13:08:39.863Z,100112.73
2023-04-27T13:13:44.109Z,100139.48
2023-04-27T13:18:49.859Z,100144.11
2023-04-27T13:23:55.196Z,100147.27
2023-04-27T13:28:58.731Z,100154.09
2023-04-27T13:34:04.590Z,100166.38
2023-04-27T13:39:08.033Z,100166.93
2023-04-27T13:44:11.828Z,100160.32
2023-04-27T13:49:15.480Z,100159.50
2023-04-27T13:54:18.959Z,100155.67
2023-04-27T13:59:22.471Z,100149.30
2023-04-27T14:04:26.367Z,100159.48
2023-04-27T14:09:29.911Z,100164.66
2023-04-27T14:14:33.432Z,100165.23
2023-04-27T14:19:37.560Z,100165.70
2023-04-27T14:24:41.496Z,100186.02
2023-04-27T14:29:45.001Z,100204.58
2023-04-27T14:34:48.620Z,100219.94
2023-04-27T14:39:52.034Z,100225.98
2023-04-27T14:44:55.450Z,100227.70
2023-04-27T14:49:59.082Z,100228.08
2023-04-27T14:55:02.481Z,100225.67
2023-04-27T15:00:10.225Z,100227.31
2023-04-27T15:05:13.708Z,100227.00
2023-04-27T15:10:17.436Z,100226.77
2023-04-27T15:15:20.739Z,100232.75
2023-04-27T15:20:24.669Z,100240.23
2023-04-27T15:25:27.970Z,100236.11
2023-04-27T15:30:31.437Z,100236.67
2023-04-27T15:35:35.008Z,100238.66
2023-04-27T15:40:40.671Z,100238.98
2023-04-27T15:45:44.806Z,100249.05
2023-04-27T15:50:48.110Z,100242.86
2023-04-27T15:55:51.828Z,100232.56
2023-04-27T16:00:55.359Z,100228.83
2023-04-27T16:05:58.654Z,100227.48
2023-04-27T16:11:02.023Z,100223.32
2023-04-27T16:16:07.284Z,100221.09
2023-04-27T16:21:10.737Z,100222.48
2023-04-27T16:26:14.047Z,100217.39
2023-04-27T16:31:17.781Z,100214.75
2023-04-27T16:36:21.385Z,100220.70
2023-04-27T16:41:24.903Z,100229.83
2023-04-27T16:46:28.447Z,100236.30
2023-04-27T16:51:32.133Z,100255.89
2023-04-27T16:56:36.482Z,100267.49
2023-04-27T17:01:40.440Z,100273.77
2023-04-27T17:06:47.130Z,100281.61
2023-04-27T17:11:50.605Z,100283.89
2023-04-27T17:16:54.320Z,100280.27
2023-04-27T17:21:57.949Z,100271.77
2023-04-27T17:27:01.970Z,100267.13
2023-04-27T17:32:05.830Z,100267.73
2023-04-27T17:37:09.424Z,100260.30
2023-04-27T17:42:12.941Z,100252.81
2023-04-27T17:47:18.389Z,100247.69
2023-04-27T17:52:22.927Z,100244.92
2023-04-27T17:57:26.378Z,100245.05
2023-04-27T18:02:30.121Z,100242.91
2023-04-27T18:07:37.775Z,100248.31
2023-04-27T18:12:41.296Z,100253.84
2023-04-27T18:19:09.600Z,100252.98
2023-04-27T18:24:13.117Z,100258.64
2023-04-27T18:29:16.742Z,100260.23
2023-04-27T18:34:20.652Z,100262.35
2023-04-27T18:39:24.030Z,100269.08
2023-04-27T18:44:27.381Z,100268.75
2023-04-27T18:49:30.907Z,100271.09
2023-04-27T18:54:34.512Z,100271.08
2023-04-27T18:59:43.257Z,100272.49
2023-04-27T19:04:52.833Z,100275.46
2023-04-27T19:10:06.805Z,100276.79
2023-04-27T19:15:10.809Z,100282.54
2023-04-27T19:20:14.206Z,100281.39
2023-04-27T19:25:17.734Z,100282.77
2023-04-27T19:30:21.246Z,100286.30
2023-04-27T19:35:26.604Z,100280.94
2023-04-27T19:40:30.020Z,100283.73
2023-04-27T19:45:34.000Z,100288.02
2023-04-27T19:50:41.553Z,100291.86
2023-04-27T19:55:45.060Z,100293.48
2023-04-27T20:00:48.449Z,100296.23
2023-04-27T20:05:52.217Z,100298.49
2023-04-27T20:10:55.923Z,100304.36
2023-04-27T20:15:59.315Z,100306.30
2023-04-27T20:21:03.589Z,100306.44
2023-04-27T20:26:07.174Z,100305.96
2023-04-27T20:31:11.229Z,100309.54
2023-04-27T20:36:18.177Z,100318.44
2023-04-27T20:41:21.825Z,100325.39
2023-04-27T20:46:25.335Z,100323.45
2023-04-27T20:51:29.268Z,100326.17
2023-04-27T20:56:33.245Z,100332.27
2023-04-27T21:01:36.754Z,100332.15
2023-04-27T21:06:41.490Z,100332.33
2023-04-27T21:11:44.974Z,100333.52
2023-04-27T21:16:48.545Z,100332.63
2023-04-27T21:21:52.210Z,100333.73
2023-04-27T21:26:56.124Z,100332.45
2023-04-27T21:31:59.844Z,100334.07
2023-04-27T21:37:03.787Z,100338.13
2023-04-27T21:42:07.493Z,100343.58
2023-04-27T21:47:11.547Z,100344.44
2023-04-27T21:52:15.030Z,100347.48
2023-04-27T21:57:20.056Z,100350.77
2023-04-27T22:02:24.136Z,100351.41
2023-04-27T22:07:28.554Z,100353.88
2023-04-27T22:12:31.959Z,100355.38
2023-04-27T22:17:35.831Z,100360.40
2023-04-27T22:22:41.262Z,100360.36
2023-04-27T22:27:45.600Z,100366.47
2023-04-27T22:32:52.702Z,100365.22
2023-04-27T22:37:56.721Z,100361.05
2023-04-27T22:43:00.223Z,100364.36
2023-04-27T22:48:03.977Z,100365.16
2023-04-27T22:53:07.673Z,100365.99
2023-04-27T22:58:11.383Z,100364.63
2023-04-27T23:03:14.993Z,100364.90
2023-04-27T23:08:18.939Z,100362.55
2023-04-27T23:13:22.646Z,100365.58
2023-04-27T23:18:26.163Z,100368.17
2023-04-27T23:23:29.580Z,100364.80
2023-04-27T23:28:33.096Z,100361.73
2023-04-27T23:33:36.808Z,100364.74
2023-04-27T23:38:40.328Z,100363.54
2023-04-27T23:43:44.968Z,100366.76
2023-04-27T23:48:48.383Z,100370.75
2023-04-27T23:53:51.817Z,100371.76
2023-04-27T23:58:55.315Z,100367.54
